createdAt,value
2022-08-26T00:00:38.018Z,99.96685
2022-08-26T00:05:39.617Z,174.2157
2022-08-26T00:10:41.187Z,159.1052
2022-08-26T00:15:42.824Z,111.52185
2022-08-26T00:20:44.428Z,67.55315
2022-08-26T00:25:46.098Z,62.57555
2022-08-26T00:30:48.204Z,121.7732
2022-08-26T00:35:53.242Z,129.4766
2022-08-26T00:40:54.860Z,150.1571
2022-08-26T00:45:56.477Z,131.0762
2022-08-26T00:50:58.893Z,111.7583
2022-08-26T00:56:00.506Z,93.922
2022-08-26T01:01:02.205Z,84.61865
2022-08-26T01:06:03.871Z,69.92295
2022-08-26T01:11:06.461Z,49.95355
2022-08-26T01:16:08.792Z,41.4206
2022-08-26T01:21:11.653Z,37.62815
2022-08-26T01:26:19.511Z,32.4728
2022-08-26T01:31:21.998Z,34.9023
2022-08-26T01:36:23.693Z,41.89455
2022-08-26T01:41:27.227Z,41.18345
2022-08-26T01:46:30.729Z,45.27215
2022-08-26T01:51:32.335Z,46.93135
2022-08-26T01:56:36.541Z,43.61295
2022-08-26T02:01:38.416Z,37.3317
2022-08-26T02:06:39.991Z,35.554
2022-08-26T02:11:41.658Z,35.31695
2022-08-26T02:16:43.314Z,35.7317
2022-08-26T02:21:45.403Z,32.65035
2022-08-26T02:26:47.237Z,23.8804
2022-08-26T02:31:48.984Z,11.67355
2022-08-26T02:36:51.827Z,4.32575
2022-08-26T02:41:53.422Z,3.85445
2022-08-26T02:46:55.045Z,0.8296
2022-08-26T02:51:56.701Z,0.47405
2022-08-26T02:56:58.592Z,0.4148
2022-08-26T03:02:01.722Z,0
2022-08-26T03:07:03.674Z,0.88715
2022-08-26T03:12:05.289Z,0
2022-08-26T03:17:06.864Z,0
2022-08-26T03:22:11.860Z,0
2022-08-26T03:27:16.305Z,0
2022-08-26T03:32:18.970Z,0
2022-08-26T03:37:20.578Z,0
2022-08-26T03:42:22.251Z,0
2022-08-26T03:47:23.851Z,0
2022-08-26T03:52:25.458Z,0
2022-08-26T03:57:27.260Z,0
2022-08-26T04:02:29.571Z,0
2022-08-26T04:07:32.095Z,0
2022-08-26T04:12:34.905Z,0
2022-08-26T04:17:36.619Z,0
2022-08-26T04:22:38.239Z,0
2022-08-26T04:27:40.750Z,0
2022-08-26T04:32:42.468Z,0
2022-08-26T04:37:44.065Z,0
2022-08-26T04:42:45.852Z,0
2022-08-26T04:47:47.445Z,0
2022-08-26T04:52:49.398Z,0
2022-08-26T04:57:51.017Z,0
2022-08-26T05:02:52.624Z,0
2022-08-26T05:07:54.302Z,0
2022-08-26T05:12:55.902Z,0
2022-08-26T05:17:57.777Z,0
2022-08-26T05:22:59.417Z,0
2022-08-26T05:28:01.021Z,0
2022-08-26T05:33:03.269Z,0
2022-08-26T05:38:07.316Z,0
2022-08-26T05:43:10.933Z,0
2022-08-26T05:48:12.505Z,0
2022-08-26T05:53:14.275Z,0
2022-08-26T05:58:18.012Z,0
2022-08-26T06:03:19.916Z,0
2022-08-26T06:08:22.068Z,0
2022-08-26T06:13:24.245Z,0
2022-08-26T06:18:25.871Z,0
2022-08-26T06:23:30.824Z,0
2022-08-26T06:28:32.432Z,0
2022-08-26T06:33:34.178Z,0
2022-08-26T06:38:36.510Z,0
2022-08-26T06:43:38.131Z,0
2022-08-26T06:48:39.764Z,0
2022-08-26T06:53:41.348Z,0
2022-08-26T06:58:42.939Z,0
2022-08-26T07:03:44.569Z,0
2022-08-26T07:08:48.278Z,0
2022-08-26T07:13:50.100Z,0
2022-08-26T07:18:53.787Z,0
2022-08-26T07:24:00.026Z,0
2022-08-26T07:29:03.366Z,0
2022-08-26T07:34:04.986Z,0
2022-08-26T07:39:06.749Z,0
2022-08-26T07:44:08.547Z,0
2022-08-26T07:49:11.871Z,0
2022-08-26T07:54:13.608Z,0
2022-08-26T07:59:15.312Z,0
2022-08-26T08:04:17.049Z,0
2022-08-26T08:09:19.493Z,0
2022-08-26T08:14:24.263Z,0
2022-08-26T08:19:33.101Z,0
2022-08-26T08:24:40.780Z,0
2022-08-26T08:29:43.319Z,0
2022-08-26T08:34:44.914Z,0
2022-08-26T08:39:46.535Z,0
2022-08-26T08:44:51.959Z,0
2022-08-26T08:49:54.137Z,0
2022-08-26T08:54:55.765Z,0
2022-08-26T08:59:57.338Z,0
2022-08-26T09:04:58.967Z,0
2022-08-26T09:10:00.578Z,0
2022-08-26T09:15:02.478Z,0
2022-08-26T09:20:04.173Z,0
2022-08-26T09:25:05.747Z,0
2022-08-26T09:30:07.516Z,0
2022-08-26T09:35:13.050Z,0
2022-08-26T09:40:14.724Z,0
2022-08-26T09:45:17.132Z,0
2022-08-26T09:50:19.021Z,0
2022-08-26T09:55:20.638Z,0
2022-08-26T10:00:22.329Z,0
2022-08-26T10:05:23.968Z,0
2022-08-26T10:10:25.693Z,0
2022-08-26T10:15:27.299Z,0
2022-08-26T10:20:29.558Z,0
2022-08-26T10:25:33.157Z,0
2022-08-26T10:30:34.891Z,0
2022-08-26T10:35:36.547Z,0
2022-08-26T10:40:38.629Z,0
2022-08-26T10:45:40.358Z,0
2022-08-26T10:50:43.075Z,0
2022-08-26T10:55:44.831Z,0
2022-08-26T11:00:46.462Z,0
2022-08-26T11:05:48.136Z,0
2022-08-26T11:10:49.926Z,0
2022-08-26T11:15:51.734Z,0
2022-08-26T11:20:54.375Z,0
2022-08-26T11:25:56.044Z,0
2022-08-26T11:30:58.676Z,0
2022-08-26T11:36:01.032Z,0
2022-08-26T11:41:13.853Z,0
2022-08-26T11:46:16.487Z,0
2022-08-26T11:51:18.122Z,0
2022-08-26T11:56:19.753Z,0
2022-08-26T12:01:23.039Z,0
2022-08-26T12:11:26.530Z,0
2022-08-26T12:16:28.225Z,0
2022-08-26T12:21:34.555Z,0
2022-08-26T12:26:37.190Z,0
2022-08-26T12:31:39.111Z,0
2022-08-26T12:36:40.807Z,0
2022-08-26T12:41:42.857Z,0
2022-08-26T12:46:49.155Z,0.4148
2022-08-26T12:51:51.528Z,0.47405
2022-08-26T12:56:53.125Z,0.88885
2022-08-26T13:01:54.820Z,4.83185
2022-08-26T13:06:56.480Z,2.87705
2022-08-26T13:11:58.096Z,4.22335
2022-08-26T13:16:59.717Z,3.6147
2022-08-26T13:22:01.355Z,6.123
2022-08-26T13:27:02.995Z,7.65375
2022-08-26T13:32:04.749Z,8.39155
2022-08-26T13:37:06.468Z,14.01635
2022-08-26T13:42:08.075Z,10.47565
2022-08-26T13:47:09.689Z,11.85145
2022-08-26T13:52:11.398Z,17.0227
2022-08-26T13:57:13.064Z,18.369
2022-08-26T14:02:15.188Z,59.6715
2022-08-26T14:07:16.788Z,28.9767
2022-08-26T14:12:18.391Z,72.945
2022-08-26T14:17:19.987Z,73.71535
2022-08-26T14:22:21.586Z,67.9083
2022-08-26T14:27:23.162Z,109.62495
2022-08-26T14:32:24.740Z,59.0791
2022-08-26T14:37:26.308Z,64.5307
2022-08-26T14:42:31.322Z,58.24945
2022-08-26T14:47:33.335Z,56.5903
2022-08-26T14:52:34.961Z,70.2787
2022-08-26T14:57:36.574Z,104.5292
2022-08-26T15:02:38.475Z,87.1077
2022-08-26T15:07:40.193Z,100.67745
2022-08-26T15:12:41.804Z,208.3473
2022-08-26T15:17:43.451Z,218.0655
2022-08-26T15:22:46.789Z,202.0068
2022-08-26T15:27:48.466Z,184.6445
2022-08-26T15:32:50.068Z,163.1935
2022-08-26T15:43:01.207Z,140.55725
2022-08-26T15:48:13.567Z,144.4682
2022-08-26T15:53:17.944Z,155.6085
2022-08-26T15:58:19.564Z,159.16395
2022-08-26T16:03:21.316Z,183.9927
2022-08-26T16:08:22.996Z,224.40595
2022-08-26T16:13:24.571Z,271.57445
2022-08-26T16:18:30.413Z,80.2935
2022-08-26T16:23:31.997Z,233.05755
2022-08-26T16:28:33.652Z,264.93765
2022-08-26T16:33:35.239Z,96.41125
2022-08-26T16:38:36.834Z,74.8417
2022-08-26T16:43:38.483Z,89.3005
2022-08-26T16:48:40.064Z,116.73645
2022-08-26T16:53:41.683Z,159.51975
2022-08-26T16:58:43.307Z,83.4339
2022-08-26T17:03:44.906Z,105.47745
2022-08-26T17:08:46.612Z,116.7955
2022-08-26T17:13:48.242Z,89.77435
2022-08-26T17:18:49.828Z,206.56955
2022-08-26T17:23:51.464Z,78.04145
2022-08-26T17:28:53.082Z,218.5395
2022-08-26T17:33:54.743Z,271.45575
2022-08-26T17:38:56.379Z,172.1415
2022-08-26T17:43:58.021Z,161.94935
2022-08-26T17:48:59.600Z,199.69585
2022-08-26T17:54:01.235Z,220.495
2022-08-26T17:59:04.228Z,129.0026
2022-08-26T18:04:06.441Z,152.0535
2022-08-26T18:09:08.095Z,94.6337
2022-08-26T18:14:09.702Z,116.4995
2022-08-26T18:19:11.398Z,215.0434
2022-08-26T18:24:14.178Z,199.6366
2022-08-26T18:29:16.009Z,264.58205
2022-08-26T18:34:17.624Z,93.09305
2022-08-26T18:39:19.324Z,137.121
2022-08-26T18:44:25.151Z,278.38935
2022-08-26T18:49:26.974Z,256.28655
2022-08-26T18:54:28.559Z,221.2064
2022-08-26T18:59:30.520Z,103.04835
2022-08-26T19:04:32.370Z,98.0708
2022-08-26T19:09:33.973Z,151.81655
2022-08-26T19:14:37.018Z,193.5333
2022-08-26T19:19:38.602Z,183.6374
2022-08-26T19:24:40.204Z,181.3856
2022-08-26T19:29:41.814Z,184.5262
2022-08-26T19:34:43.623Z,188.43715
2022-08-26T19:39:45.232Z,190.74815
2022-08-26T19:44:46.869Z,203.4292
2022-08-26T19:49:48.452Z,221.08785
2022-08-26T19:54:50.114Z,234.77625
2022-08-26T19:59:52.997Z,247.51655
2022-08-26T20:04:54.612Z,263.516
2022-08-26T20:09:56.265Z,270.33055
2022-08-26T20:14:57.856Z,276.1969
2022-08-26T20:19:59.474Z,291.07025
2022-08-26T20:25:01.121Z,315.00985
2022-08-26T20:30:02.740Z,302.44735
2022-08-26T20:35:04.387Z,330.94965
2022-08-26T20:40:06.037Z,66.8421
2022-08-26T20:45:07.631Z,58.1905
2022-08-26T20:50:09.279Z,63.9384
2022-08-26T20:55:11.043Z,67.84935
2022-08-26T21:00:12.603Z,73.12325
2022-08-26T21:05:15.832Z,94.9298
2022-08-26T21:10:17.500Z,96.4113
2022-08-26T21:15:19.760Z,71.9382
2022-08-26T21:20:21.373Z,136.8835
2022-08-26T21:25:23.007Z,340.1931
2022-08-26T21:30:24.634Z,94.21875
2022-08-26T21:35:26.221Z,104.9443
2022-08-26T21:40:28.172Z,96.9446
2022-08-26T21:45:30.032Z,86.7524
2022-08-26T21:50:31.690Z,86.9302
2022-08-26T21:55:33.263Z,86.2191
2022-08-26T22:00:34.851Z,85.74505
2022-08-26T22:05:36.567Z,80.17495
2022-08-26T22:10:38.200Z,66.8422
2022-08-26T22:15:39.938Z,68.2051
2022-08-26T22:20:41.572Z,71.5235
2022-08-26T22:25:43.171Z,77.74545
2022-08-26T22:30:44.761Z,63.7609
2022-08-26T22:35:46.369Z,249.29365
2022-08-26T22:40:47.982Z,206.74745
2022-08-26T22:45:49.647Z,239.81265
2022-08-26T22:50:51.335Z,235.30915
2022-08-26T22:55:52.932Z,75.9677
2022-08-26T23:00:54.618Z,247.45695
2022-08-26T23:05:57.349Z,236.3167
2022-08-26T23:10:58.940Z,226.3023
2022-08-26T23:16:00.567Z,80.8268
2022-08-26T23:21:02.169Z,208.46595
2022-08-26T23:26:06.224Z,201.65155
2022-08-26T23:31:08.020Z,199.6368
2022-08-26T23:36:09.664Z,188.7927
2022-08-26T23:41:12.420Z,48.7095
2022-08-26T23:46:14.101Z,176.76355
2022-08-26T23:51:15.747Z,140.37995
2022-08-26T23:56:17.358Z,184.1115
